CYZT

Port Hardy Airport

Port Hardy, , Canada
METAR CYZT 172100Z 09005KT 20SM FEW008 FEW230 07/04 A3033 RMK SF1CI1 SF TR SLP272
Observed Flight Rules
Nov-17 @ 21:00 UTC (59 minutes ago) Visual Flight Rules
Wind Visibility Clouds
90° at 5 knots 20 miles
  • Few at 800' AGL
  • Few at 23,000' AGL
Temperatures Readings
Current 7°C / 45°F
Dewpoint 4°C / 39°F
Humidity 81%
Altimeter 30.33" Hg
Pressure 1027.2 hPa
Elevation 22
METAR CYZT 172100Z 09005KT 20SM FEW008 FEW230 07/04 A3033 RMK SF1CI1 SF TR SLP272
Observed Flight Rules
Nov-17 @ 21:00 UTC
(59 minutes ago)
VFR
Wind Visibility
90° at 5 knots 20 miles
Clouds
  • Few at 800' AGL
  • Few at 23,000' AGL
Temperature Dewpoint
7°C / 45°F 4°C / 39°F
Humidity Altimeter Pressure
81% 30.33" Hg 1027.2 hPa